createdAt,value
2022-10-24T00:11:15.908Z,99940.91
2022-10-24T00:18:04.754Z,99949.59
2022-10-24T00:24:50.374Z,99947.25
2022-10-24T00:31:35.969Z,99958.44
2022-10-24T00:38:23.895Z,99942.16
2022-10-24T00:45:51.520Z,99945.72
2022-10-24T00:52:40.996Z,99850.16
2022-10-24T00:59:30.615Z,99940.22
2022-10-24T01:06:37.357Z,99930.06
2022-10-24T01:13:34.362Z,99942.50
2022-10-24T01:20:50.439Z,99907.34
2022-10-24T01:27:59.088Z,99912.25
2022-10-24T01:34:53.621Z,99908.28
2022-10-24T01:41:39.522Z,99911.13
2022-10-24T01:48:28.632Z,99896.41
2022-10-24T01:55:17.001Z,99883.69
2022-10-24T02:02:08.562Z,99880.53
2022-10-24T02:08:59.881Z,99766.34
2022-10-24T02:15:55.237Z,99876.50
2022-10-24T02:22:50.759Z,99883.25
2022-10-24T02:29:44.966Z,99881.88
2022-10-24T02:36:36.009Z,99806.81
2022-10-24T02:43:25.035Z,99884.28
2022-10-24T03:04:01.076Z,99896.81
2022-10-24T03:10:46.770Z,99888.13
2022-10-24T03:17:32.270Z,99886.00
2022-10-24T03:24:31.028Z,99892.19
2022-10-24T03:31:25.655Z,99905.97
2022-10-24T03:38:11.036Z,99906.63
2022-10-24T03:44:59.012Z,99905.28
2022-10-24T03:51:44.417Z,99923.41
2022-10-24T03:58:30.248Z,99913.47
2022-10-24T04:05:18.296Z,99911.78
2022-10-24T04:12:03.670Z,99907.91
2022-10-24T04:18:49.371Z,99910.03
2022-10-24T04:25:37.337Z,99915.31
2022-10-24T04:32:22.732Z,99916.16
2022-10-24T04:39:08.621Z,99901.88
2022-10-24T04:45:56.836Z,99894.91
2022-10-24T04:52:42.881Z,99880.63
2022-10-24T04:59:28.272Z,99897.09
2022-10-24T05:06:16.285Z,99894.63
2022-10-24T05:13:01.890Z,99894.81
2022-10-24T05:19:47.259Z,99906.06
2022-10-24T05:26:35.340Z,99910.38
2022-10-24T05:33:20.793Z,99913.88
2022-10-24T05:40:06.965Z,99933.66
2022-10-24T05:46:55.358Z,99921.47
2022-10-24T05:53:40.801Z,99946.56
2022-10-24T06:00:26.853Z,99952.47
2022-10-24T06:07:14.964Z,99953.63
2022-10-24T06:14:00.337Z,99938.75
2022-10-24T06:20:50.722Z,99974.81
2022-10-24T06:27:40.812Z,99968.28
2022-10-24T06:34:26.468Z,99979.13
2022-10-24T06:41:14.180Z,99969.00
2022-10-24T06:48:02.076Z,99979.38
2022-10-24T06:54:47.405Z,99984.50
2022-10-24T07:01:32.883Z,99984.94
2022-10-24T07:08:21.078Z,99995.31
2022-10-24T07:15:07.383Z,100003.47
2022-10-24T07:21:52.537Z,100013.28
2022-10-24T07:28:42.220Z,99999.00
2022-10-24T07:35:27.633Z,100026.84
2022-10-24T07:42:15.000Z,100027.28
2022-10-24T07:49:03.119Z,100010.47
2022-10-24T07:55:48.755Z,100024.81
2022-10-24T08:02:34.081Z,100032.84
2022-10-24T08:09:22.076Z,100006.97
2022-10-24T08:16:09.997Z,99992.34
2022-10-24T08:22:55.806Z,100010.09
2022-10-24T08:29:43.872Z,99996.72
2022-10-24T08:36:31.908Z,100003.97
2022-10-24T08:43:17.379Z,100010.31
2022-10-24T08:50:09.547Z,99992.50
2022-10-24T08:56:59.911Z,100000.56
2022-10-24T09:03:56.009Z,100013.47
2022-10-24T09:10:53.680Z,99991.25
2022-10-24T09:17:42.312Z,99973.47
2022-10-24T09:24:40.714Z,100000.91
2022-10-24T09:31:30.333Z,99990.31
2022-10-24T09:38:36.161Z,99993.63
2022-10-24T09:45:35.005Z,100005.84
2022-10-24T09:52:26.169Z,100020.19
2022-10-24T09:59:36.242Z,100031.66
2022-10-24T10:06:24.141Z,100049.59
2022-10-24T10:13:24.708Z,100050.00
2022-10-24T10:20:26.905Z,100060.72
2022-10-24T10:27:30.403Z,100055.25
2022-10-24T10:34:26.231Z,100055.94
2022-10-24T10:41:22.380Z,100062.84
2022-10-24T10:48:26.396Z,100048.16
2022-10-24T10:55:28.200Z,100036.66
2022-10-24T11:02:49.280Z,100044.81
2022-10-24T11:09:44.271Z,99980.47
2022-10-24T11:16:34.502Z,100049.16
2022-10-24T11:23:29.209Z,100028.47
2022-10-24T11:30:20.125Z,100041.06
2022-10-24T11:37:17.839Z,100031.91
2022-10-24T11:44:13.065Z,100042.69
2022-10-24T11:51:04.098Z,100026.25
2022-10-24T11:57:57.949Z,100042.47
2022-10-24T12:05:04.566Z,100028.34
2022-10-24T12:12:27.558Z,100050.00
2022-10-24T12:19:20.959Z,100004.63
2022-10-24T12:26:18.595Z,100034.50
2022-10-24T12:33:15.230Z,100023.25
2022-10-24T12:40:03.851Z,100031.91
2022-10-24T12:46:58.277Z,100028.00
2022-10-24T12:54:22.276Z,100014.19
2022-10-24T13:01:27.267Z,100008.78
2022-10-24T13:08:35.579Z,100014.03
2022-10-24T13:15:43.082Z,99986.91
2022-10-24T13:22:39.179Z,99992.63
2022-10-24T13:30:00.440Z,100007.16
2022-10-24T13:36:48.230Z,100013.19
2022-10-24T13:43:36.475Z,100002.38
2022-10-24T13:50:26.699Z,99987.16
2022-10-24T13:57:31.342Z,100027.69
2022-10-24T14:04:19.374Z,100018.56
2022-10-24T14:11:08.419Z,100020.59
2022-10-24T14:18:00.462Z,100027.44
2022-10-24T14:24:50.774Z,100047.59
2022-10-24T14:31:38.369Z,100045.28
2022-10-24T14:38:25.531Z,100048.59
2022-10-24T14:45:26.928Z,100042.66
2022-10-24T14:52:17.998Z,100047.53
2022-10-24T14:59:07.176Z,100044.63
2022-10-24T15:06:10.485Z,100055.34
2022-10-24T15:13:02.730Z,100053.78
2022-10-24T15:19:48.988Z,100068.56
2022-10-24T15:26:40.661Z,100065.31
2022-10-24T15:33:26.001Z,100069.78
2022-10-24T15:40:21.443Z,100061.38
2022-10-24T15:47:09.573Z,100071.78
2022-10-24T15:53:56.372Z,100087.00
2022-10-24T16:00:42.327Z,100087.38
2022-10-24T16:07:30.343Z,100082.59
2022-10-24T16:14:17.453Z,100103.06
2022-10-24T16:21:03.797Z,100103.81
2022-10-24T16:27:52.099Z,100120.63
2022-10-24T16:34:37.609Z,100116.59
2022-10-24T16:41:26.286Z,100143.00
2022-10-24T16:48:14.428Z,100114.84
2022-10-24T16:54:59.900Z,100154.47
2022-10-24T17:01:45.807Z,100127.59
2022-10-24T17:08:34.067Z,100151.53
2022-10-24T17:15:22.392Z,100162.59
2022-10-24T17:22:08.878Z,100141.25
2022-10-24T17:28:57.326Z,100163.53
2022-10-24T17:35:50.854Z,100151.75
2022-10-24T17:42:37.058Z,100170.06
2022-10-24T17:49:25.017Z,100168.22
2022-10-24T18:03:19.395Z,100169.47
2022-10-24T18:10:08.313Z,100206.91
2022-10-24T18:16:54.403Z,100205.28
2022-10-24T18:23:40.457Z,100209.06
2022-10-24T18:30:28.245Z,100225.13
2022-10-24T18:38:18.687Z,100220.75
2022-10-24T18:45:05.747Z,100200.81
2022-10-24T18:52:03.505Z,100218.28
2022-10-24T18:58:57.224Z,100234.84
2022-10-24T19:05:51.899Z,100212.72
2022-10-24T19:12:40.478Z,100227.66
2022-10-24T19:19:34.538Z,100243.44
2022-10-24T19:26:20.269Z,100235.72
2022-10-24T19:33:05.620Z,100242.59
2022-10-24T19:39:53.641Z,100247.22
2022-10-24T19:46:39.000Z,100248.13
2022-10-24T19:53:24.409Z,100257.09
2022-10-24T20:00:14.524Z,100257.66
2022-10-24T20:06:59.909Z,100255.66
2022-10-24T20:13:45.696Z,100260.69
2022-10-24T20:20:36.577Z,100274.72
2022-10-24T20:27:24.536Z,100281.81
2022-10-24T20:34:12.041Z,100266.75
2022-10-24T20:41:04.859Z,100282.28
2022-10-24T20:47:50.229Z,100315.78
2022-10-24T20:54:35.644Z,100327.22
2022-10-24T21:01:26.205Z,100327.81
2022-10-24T21:08:11.712Z,100347.13
2022-10-24T21:14:57.251Z,100341.44
2022-10-24T21:21:45.330Z,100256.91
2022-10-24T21:28:31.807Z,100350.63
2022-10-24T21:35:17.113Z,100359.44
2022-10-24T21:42:05.479Z,100359.44
2022-10-24T21:48:52.712Z,100360.25
2022-10-24T21:55:38.048Z,100355.34
2022-10-24T22:02:26.139Z,100367.91
2022-10-24T22:09:15.839Z,100371.41
2022-10-24T22:16:02.044Z,100391.94
2022-10-24T22:22:49.978Z,100402.72
2022-10-24T22:29:35.397Z,100423.41
2022-10-24T22:36:42.989Z,100418.09
2022-10-24T22:43:31.885Z,100413.66
2022-10-24T22:50:48.425Z,100424.34
2022-10-24T23:04:49.880Z,100437.28
2022-10-24T23:11:36.187Z,100441.53
2022-10-24T23:18:22.465Z,100437.03
2022-10-24T23:25:13.860Z,100431.81
2022-10-24T23:32:00.154Z,100453.78
2022-10-24T23:38:47.806Z,100464.16
2022-10-24T23:45:40.577Z,100423.72
2022-10-24T23:52:35.779Z,100465.31
2022-10-24T23:59:21.125Z,100465.72
